sensor_id;sensor_type;location;lat;lon;timestamp;P1;durP1;ratioP1;P2;durP2;ratioP2
2486;SDS011;1254;49.144;8.212;2023-04-06T00:02:10;11.10;;;8.38;;
2486;SDS011;1254;49.144;8.212;2023-04-06T00:04:38;10.60;;;8.25;;
2486;SDS011;1254;49.144;8.212;2023-04-06T00:07:07;10.50;;;8.02;;
2486;SDS011;1254;49.144;8.212;2023-04-06T00:09:36;9.50;;;7.70;;
2486;SDS011;1254;49.144;8.212;2023-04-06T00:12:05;9.57;;;8.63;;
2486;SDS011;1254;49.144;8.212;2023-04-06T00:14:33;8.25;;;7.30;;
2486;SDS011;1254;49.144;8.212;2023-04-06T00:17:04;10.68;;;7.43;;
2486;SDS011;1254;49.144;8.212;2023-04-06T00:19:33;8.57;;;7.78;;
2486;SDS011;1254;49.144;8.212;2023-04-06T00:22:01;9.05;;;7.75;;
2486;SDS011;1254;49.144;8.212;2023-04-06T00:24:29;10.65;;;8.30;;
2486;SDS011;1254;49.144;8.212;2023-04-06T00:26:59;11.40;;;8.02;;
2486;SDS011;1254;49.144;8.212;2023-04-06T00:29:27;9.55;;;8.35;;
2486;SDS011;1254;49.144;8.212;2023-04-06T00:31:56;13.50;;;8.70;;
2486;SDS011;1254;49.144;8.212;2023-04-06T00:34:24;38.67;;;16.15;;
2486;SDS011;1254;49.144;8.212;2023-04-06T00:36:52;42.95;;;16.88;;
2486;SDS011;1254;49.144;8.212;2023-04-06T00:39:21;39.47;;;16.85;;
2486;SDS011;1254;49.144;8.212;2023-04-06T00:41:50;47.90;;;16.92;;
2486;SDS011;1254;49.144;8.212;2023-04-06T00:44:20;19.73;;;10.15;;
2486;SDS011;1254;49.144;8.212;2023-04-06T00:46:49;21.50;;;9.57;;
2486;SDS011;1254;49.144;8.212;2023-04-06T00:49:18;20.23;;;10.00;;
2486;SDS011;1254;49.144;8.212;2023-04-06T00:51:46;26.15;;;11.60;;
2486;SDS011;1254;49.144;8.212;2023-04-06T00:54:15;36.83;;;12.32;;
2486;SDS011;1254;49.144;8.212;2023-04-06T00:56:44;19.00;;;9.20;;
2486;SDS011;1254;49.144;8.212;2023-04-06T00:59:12;16.67;;;9.02;;
2486;SDS011;1254;49.144;8.212;2023-04-06T01:01:42;12.23;;;8.82;;
2486;SDS011;1254;49.144;8.212;2023-04-06T01:04:26;15.00;;;8.40;;
2486;SDS011;1254;49.144;8.212;2023-04-06T01:06:55;10.70;;;7.90;;
2486;SDS011;1254;49.144;8.212;2023-04-06T01:09:29;11.80;;;8.38;;
2486;SDS011;1254;49.144;8.212;2023-04-06T01:12:02;11.93;;;7.82;;
2486;SDS011;1254;49.144;8.212;2023-04-06T01:14:34;9.95;;;8.13;;
2486;SDS011;1254;49.144;8.212;2023-04-06T01:17:03;10.60;;;8.38;;
2486;SDS011;1254;49.144;8.212;2023-04-06T01:19:33;8.65;;;7.40;;
2486;SDS011;1254;49.144;8.212;2023-04-06T01:22:02;9.65;;;7.90;;
2486;SDS011;1254;49.144;8.212;2023-04-06T01:24:32;8.88;;;7.72;;
2486;SDS011;1254;49.144;8.212;2023-04-06T01:27:14;8.35;;;6.97;;
2486;SDS011;1254;49.144;8.212;2023-04-06T01:30:02;11.20;;;8.15;;
2486;SDS011;1254;49.144;8.212;2023-04-06T01:32:50;9.43;;;7.40;;
2486;SDS011;1254;49.144;8.212;2023-04-06T01:35:34;11.65;;;8.30;;
2486;SDS011;1254;49.144;8.212;2023-04-06T01:38:13;8.05;;;7.18;;
2486;SDS011;1254;49.144;8.212;2023-04-06T01:40:42;10.80;;;8.02;;
2486;SDS011;1254;49.144;8.212;2023-04-06T01:43:11;9.82;;;7.68;;
2486;SDS011;1254;49.144;8.212;2023-04-06T01:45:58;9.85;;;7.90;;
2486;SDS011;1254;49.144;8.212;2023-04-06T01:48:32;9.48;;;6.65;;
2486;SDS011;1254;49.144;8.212;2023-04-06T01:51:08;9.65;;;8.00;;
2486;SDS011;1254;49.144;8.212;2023-04-06T01:53:45;10.10;;;7.68;;
2486;SDS011;1254;49.144;8.212;2023-04-06T01:56:16;12.80;;;7.68;;
2486;SDS011;1254;49.144;8.212;2023-04-06T01:58:54;9.65;;;8.07;;
2486;SDS011;1254;49.144;8.212;2023-04-06T02:01:23;7.97;;;7.18;;
2486;SDS011;1254;49.144;8.212;2023-04-06T02:03:55;10.93;;;7.15;;
2486;SDS011;1254;49.144;8.212;2023-04-06T02:06:24;9.40;;;7.75;;
2486;SDS011;1254;49.144;8.212;2023-04-06T02:08:53;12.70;;;8.88;;
2486;SDS011;1254;49.144;8.212;2023-04-06T02:11:22;8.93;;;7.45;;
2486;SDS011;1254;49.144;8.212;2023-04-06T02:13:55;9.68;;;7.75;;
2486;SDS011;1254;49.144;8.212;2023-04-06T02:16:28;8.23;;;7.15;;
2486;SDS011;1254;49.144;8.212;2023-04-06T02:18:56;10.05;;;8.18;;
2486;SDS011;1254;49.144;8.212;2023-04-06T02:21:25;9.77;;;8.00;;
2486;SDS011;1254;49.144;8.212;2023-04-06T02:23:53;14.50;;;8.32;;
2486;SDS011;1254;49.144;8.212;2023-04-06T02:26:23;13.80;;;7.70;;
2486;SDS011;1254;49.144;8.212;2023-04-06T02:28:51;8.73;;;7.80;;
2486;SDS011;1254;49.144;8.212;2023-04-06T02:31:19;11.27;;;7.75;;
2486;SDS011;1254;49.144;8.212;2023-04-06T02:33:49;11.90;;;9.40;;
2486;SDS011;1254;49.144;8.212;2023-04-06T02:36:17;11.80;;;8.77;;
2486;SDS011;1254;49.144;8.212;2023-04-06T02:38:46;29.38;;;14.85;;
2486;SDS011;1254;49.144;8.212;2023-04-06T02:41:14;13.95;;;9.20;;
2486;SDS011;1254;49.144;8.212;2023-04-06T02:43:43;18.88;;;11.35;;
2486;SDS011;1254;49.144;8.212;2023-04-06T02:46:28;13.80;;;8.88;;
2486;SDS011;1254;49.144;8.212;2023-04-06T02:48:56;29.98;;;15.15;;
2486;SDS011;1254;49.144;8.212;2023-04-06T02:51:27;76.97;;;40.85;;
2486;SDS011;1254;49.144;8.212;2023-04-06T02:54:06;71.47;;;40.78;;
2486;SDS011;1254;49.144;8.212;2023-04-06T02:56:34;10.90;;;8.40;;
2486;SDS011;1254;49.144;8.212;2023-04-06T02:59:04;9.65;;;7.65;;
2486;SDS011;1254;49.144;8.212;2023-04-06T03:01:33;13.02;;;8.63;;
2486;SDS011;1254;49.144;8.212;2023-04-06T03:04:04;19.63;;;13.18;;
2486;SDS011;1254;49.144;8.212;2023-04-06T03:06:32;37.10;;;24.00;;
2486;SDS011;1254;49.144;8.212;2023-04-06T03:09:11;15.10;;;11.68;;
2486;SDS011;1254;49.144;8.212;2023-04-06T03:11:41;21.20;;;13.40;;
2486;SDS011;1254;49.144;8.212;2023-04-06T03:14:11;12.15;;;9.10;;
2486;SDS011;1254;49.144;8.212;2023-04-06T03:16:40;10.50;;;8.25;;
2486;SDS011;1254;49.144;8.212;2023-04-06T03:19:08;11.35;;;8.43;;
2486;SDS011;1254;49.144;8.212;2023-04-06T03:21:37;12.65;;;9.63;;
2486;SDS011;1254;49.144;8.212;2023-04-06T03:24:05;10.88;;;8.82;;
2486;SDS011;1254;49.144;8.212;2023-04-06T03:26:34;14.50;;;9.70;;
2486;SDS011;1254;49.144;8.212;2023-04-06T03:29:06;11.18;;;9.18;;
2486;SDS011;1254;49.144;8.212;2023-04-06T03:31:36;15.35;;;10.40;;
2486;SDS011;1254;49.144;8.212;2023-04-06T03:34:07;15.65;;;11.70;;
2486;SDS011;1254;49.144;8.212;2023-04-06T03:36:36;20.77;;;12.23;;
2486;SDS011;1254;49.144;8.212;2023-04-06T03:39:04;17.80;;;12.82;;
2486;SDS011;1254;49.144;8.212;2023-04-06T03:41:36;17.33;;;13.13;;
2486;SDS011;1254;49.144;8.212;2023-04-06T03:44:12;15.55;;;10.85;;
2486;SDS011;1254;49.144;8.212;2023-04-06T03:46:42;11.73;;;9.25;;
2486;SDS011;1254;49.144;8.212;2023-04-06T03:49:11;14.45;;;8.95;;
2486;SDS011;1254;49.144;8.212;2023-04-06T03:51:42;11.75;;;8.43;;
2486;SDS011;1254;49.144;8.212;2023-04-06T03:54:10;11.00;;;8.80;;
2486;SDS011;1254;49.144;8.212;2023-04-06T03:56:39;14.88;;;9.43;;
2486;SDS011;1254;49.144;8.212;2023-04-06T03:59:07;17.40;;;9.32;;
2486;SDS011;1254;49.144;8.212;2023-04-06T04:01:35;20.98;;;9.00;;
2486;SDS011;1254;49.144;8.212;2023-04-06T04:04:06;10.20;;;8.07;;
2486;SDS011;1254;49.144;8.212;2023-04-06T04:06:35;12.40;;;7.55;;
2486;SDS011;1254;49.144;8.212;2023-04-06T04:09:03;8.20;;;6.57;;
2486;SDS011;1254;49.144;8.212;2023-04-06T04:11:32;11.40;;;8.35;;
2486;SDS011;1254;49.144;8.212;2023-04-06T04:14:00;8.27;;;7.20;;
2486;SDS011;1254;49.144;8.212;2023-04-06T04:16:29;10.57;;;7.80;;
2486;SDS011;1254;49.144;8.212;2023-04-06T04:18:58;10.23;;;7.72;;
2486;SDS011;1254;49.144;8.212;2023-04-06T04:21:29;9.48;;;7.93;;
2486;SDS011;1254;49.144;8.212;2023-04-06T04:24:00;11.35;;;8.60;;
2486;SDS011;1254;49.144;8.212;2023-04-06T04:26:28;9.50;;;8.20;;
2486;SDS011;1254;49.144;8.212;2023-04-06T04:28:56;11.48;;;8.68;;
2486;SDS011;1254;49.144;8.212;2023-04-06T04:31:25;9.13;;;7.63;;
2486;SDS011;1254;49.144;8.212;2023-04-06T04:33:59;10.82;;;7.72;;
2486;SDS011;1254;49.144;8.212;2023-04-06T04:36:32;8.95;;;7.18;;
2486;SDS011;1254;49.144;8.212;2023-04-06T04:39:04;9.02;;;6.95;;
2486;SDS011;1254;49.144;8.212;2023-04-06T04:41:37;9.32;;;6.90;;
2486;SDS011;1254;49.144;8.212;2023-04-06T04:44:09;8.75;;;7.63;;
2486;SDS011;1254;49.144;8.212;2023-04-06T04:46:37;9.10;;;7.43;;
2486;SDS011;1254;49.144;8.212;2023-04-06T04:49:08;9.82;;;7.78;;
2486;SDS011;1254;49.144;8.212;2023-04-06T04:51:38;12.32;;;7.32;;
2486;SDS011;1254;49.144;8.212;2023-04-06T04:54:11;11.68;;;8.40;;
2486;SDS011;1254;49.144;8.212;2023-04-06T04:56:40;8.82;;;7.75;;
2486;SDS011;1254;49.144;8.212;2023-04-06T04:59:24;12.32;;;8.48;;
2486;SDS011;1254;49.144;8.212;2023-04-06T05:02:00;9.25;;;7.50;;
2486;SDS011;1254;49.144;8.212;2023-04-06T05:04:38;15.05;;;8.52;;
2486;SDS011;1254;49.144;8.212;2023-04-06T05:07:10;12.48;;;8.20;;
2486;SDS011;1254;49.144;8.212;2023-04-06T05:09:40;10.90;;;7.90;;
2486;SDS011;1254;49.144;8.212;2023-04-06T05:12:09;12.63;;;7.90;;
2486;SDS011;1254;49.144;8.212;2023-04-06T05:14:47;10.82;;;9.13;;
2486;SDS011;1254;49.144;8.212;2023-04-06T05:17:18;11.45;;;8.60;;
2486;SDS011;1254;49.144;8.212;2023-04-06T05:19:46;16.40;;;9.38;;
2486;SDS011;1254;49.144;8.212;2023-04-06T05:22:22;10.30;;;6.93;;
2486;SDS011;1254;49.144;8.212;2023-04-06T05:25:01;11.50;;;8.88;;
2486;SDS011;1254;49.144;8.212;2023-04-06T05:27:31;10.63;;;8.10;;
2486;SDS011;1254;49.144;8.212;2023-04-06T05:30:04;12.05;;;8.20;;
2486;SDS011;1254;49.144;8.212;2023-04-06T05:32:39;10.02;;;7.25;;
2486;SDS011;1254;49.144;8.212;2023-04-06T05:35:09;14.52;;;9.48;;
2486;SDS011;1254;49.144;8.212;2023-04-06T05:37:39;17.75;;;8.65;;
2486;SDS011;1254;49.144;8.212;2023-04-06T05:40:09;12.80;;;7.78;;
2486;SDS011;1254;49.144;8.212;2023-04-06T05:42:37;17.02;;;7.75;;
2486;SDS011;1254;49.144;8.212;2023-04-06T05:45:06;10.82;;;8.05;;
2486;SDS011;1254;49.144;8.212;2023-04-06T05:47:35;37.80;;;10.70;;
2486;SDS011;1254;49.144;8.212;2023-04-06T05:50:16;15.18;;;9.35;;
2486;SDS011;1254;49.144;8.212;2023-04-06T05:52:46;12.55;;;9.02;;
2486;SDS011;1254;49.144;8.212;2023-04-06T05:55:18;18.50;;;8.85;;
2486;SDS011;1254;49.144;8.212;2023-04-06T05:57:55;10.00;;;7.15;;
2486;SDS011;1254;49.144;8.212;2023-04-06T06:00:23;20.15;;;11.05;;
2486;SDS011;1254;49.144;8.212;2023-04-06T06:03:01;15.38;;;10.15;;
2486;SDS011;1254;49.144;8.212;2023-04-06T06:05:33;18.48;;;9.55;;
2486;SDS011;1254;49.144;8.212;2023-04-06T06:08:11;12.27;;;8.35;;
2486;SDS011;1254;49.144;8.212;2023-04-06T06:10:39;19.95;;;10.90;;
2486;SDS011;1254;49.144;8.212;2023-04-06T06:13:11;15.52;;;9.32;;
2486;SDS011;1254;49.144;8.212;2023-04-06T06:15:39;12.65;;;9.35;;
2486;SDS011;1254;49.144;8.212;2023-04-06T06:18:08;14.63;;;9.98;;
2486;SDS011;1254;49.144;8.212;2023-04-06T06:20:37;14.65;;;9.55;;
2486;SDS011;1254;49.144;8.212;2023-04-06T06:23:06;17.42;;;10.45;;
2486;SDS011;1254;49.144;8.212;2023-04-06T06:25:36;12.40;;;8.50;;
2486;SDS011;1254;49.144;8.212;2023-04-06T06:28:05;16.17;;;8.75;;
2486;SDS011;1254;49.144;8.212;2023-04-06T06:30:33;12.70;;;8.77;;
2486;SDS011;1254;49.144;8.212;2023-04-06T06:33:02;14.15;;;9.38;;
2486;SDS011;1254;49.144;8.212;2023-04-06T06:35:30;13.35;;;8.38;;
2486;SDS011;1254;49.144;8.212;2023-04-06T06:38:02;13.82;;;9.02;;
2486;SDS011;1254;49.144;8.212;2023-04-06T06:40:32;11.50;;;9.13;;
2486;SDS011;1254;49.144;8.212;2023-04-06T06:46:04;14.38;;;10.48;;
2486;SDS011;1254;49.144;8.212;2023-04-06T06:48:33;14.95;;;10.60;;
2486;SDS011;1254;49.144;8.212;2023-04-06T06:51:01;15.55;;;10.55;;
2486;SDS011;1254;49.144;8.212;2023-04-06T06:53:29;16.80;;;11.25;;
2486;SDS011;1254;49.144;8.212;2023-04-06T06:55:58;18.67;;;13.70;;
2486;SDS011;1254;49.144;8.212;2023-04-06T06:58:28;23.77;;;14.60;;
2486;SDS011;1254;49.144;8.212;2023-04-06T07:00:57;27.85;;;17.95;;
2486;SDS011;1254;49.144;8.212;2023-04-06T07:03:29;27.77;;;15.13;;
2486;SDS011;1254;49.144;8.212;2023-04-06T07:05:58;24.15;;;16.65;;
2486;SDS011;1254;49.144;8.212;2023-04-06T07:08:26;36.35;;;17.67;;
2486;SDS011;1254;49.144;8.212;2023-04-06T07:10:54;30.85;;;18.67;;
2486;SDS011;1254;49.144;8.212;2023-04-06T07:13:23;29.88;;;17.60;;
2486;SDS011;1254;49.144;8.212;2023-04-06T07:15:55;30.23;;;19.35;;
2486;SDS011;1254;49.144;8.212;2023-04-06T07:18:24;34.45;;;19.10;;
2486;SDS011;1254;49.144;8.212;2023-04-06T07:20:53;32.17;;;18.05;;
2486;SDS011;1254;49.144;8.212;2023-04-06T07:23:22;28.77;;;17.35;;
2486;SDS011;1254;49.144;8.212;2023-04-06T07:25:50;24.73;;;16.98;;
2486;SDS011;1254;49.144;8.212;2023-04-06T07:28:20;27.85;;;16.17;;
2486;SDS011;1254;49.144;8.212;2023-04-06T07:30:48;28.10;;;15.40;;
2486;SDS011;1254;49.144;8.212;2023-04-06T07:33:17;23.00;;;15.13;;
2486;SDS011;1254;49.144;8.212;2023-04-06T07:35:46;19.52;;;14.40;;
2486;SDS011;1254;49.144;8.212;2023-04-06T07:38:16;22.70;;;14.55;;
2486;SDS011;1254;49.144;8.212;2023-04-06T07:40:45;19.15;;;13.20;;
2486;SDS011;1254;49.144;8.212;2023-04-06T07:43:13;22.65;;;13.65;;
2486;SDS011;1254;49.144;8.212;2023-04-06T07:45:41;20.25;;;11.60;;
2486;SDS011;1254;49.144;8.212;2023-04-06T07:48:10;17.40;;;12.07;;
2486;SDS011;1254;49.144;8.212;2023-04-06T07:50:40;16.67;;;11.70;;
2486;SDS011;1254;49.144;8.212;2023-04-06T07:53:09;19.30;;;12.43;;
2486;SDS011;1254;49.144;8.212;2023-04-06T07:55:39;11.00;;;9.85;;
2486;SDS011;1254;49.144;8.212;2023-04-06T07:58:08;12.45;;;10.07;;
2486;SDS011;1254;49.144;8.212;2023-04-06T08:00:37;13.30;;;11.15;;
2486;SDS011;1254;49.144;8.212;2023-04-06T08:03:05;14.68;;;10.10;;
2486;SDS011;1254;49.144;8.212;2023-04-06T08:05:33;11.00;;;9.88;;
2486;SDS011;1254;49.144;8.212;2023-04-06T08:08:02;12.75;;;10.63;;
2486;SDS011;1254;49.144;8.212;2023-04-06T08:10:30;11.18;;;10.18;;
2486;SDS011;1254;49.144;8.212;2023-04-06T08:13:01;10.18;;;9.38;;
2486;SDS011;1254;49.144;8.212;2023-04-06T08:15:30;13.45;;;10.80;;
2486;SDS011;1254;49.144;8.212;2023-04-06T08:17:58;16.10;;;10.13;;
2486;SDS011;1254;49.144;8.212;2023-04-06T08:20:26;11.80;;;10.80;;
2486;SDS011;1254;49.144;8.212;2023-04-06T08:22:55;11.65;;;10.75;;
2486;SDS011;1254;49.144;8.212;2023-04-06T08:25:23;11.35;;;10.10;;
2486;SDS011;1254;49.144;8.212;2023-04-06T08:27:52;14.93;;;10.73;;
2486;SDS011;1254;49.144;8.212;2023-04-06T08:30:22;17.45;;;11.52;;
2486;SDS011;1254;49.144;8.212;2023-04-06T08:32:50;20.33;;;15.32;;
2486;SDS011;1254;49.144;8.212;2023-04-06T08:35:18;12.70;;;11.50;;
2486;SDS011;1254;49.144;8.212;2023-04-06T08:37:47;13.02;;;11.73;;
2486;SDS011;1254;49.144;8.212;2023-04-06T08:40:15;11.90;;;10.82;;
2486;SDS011;1254;49.144;8.212;2023-04-06T08:42:44;12.57;;;11.48;;
2486;SDS011;1254;49.144;8.212;2023-04-06T08:45:16;16.35;;;13.00;;
2486;SDS011;1254;49.144;8.212;2023-04-06T08:47:49;12.90;;;11.70;;
2486;SDS011;1254;49.144;8.212;2023-04-06T08:50:18;23.40;;;11.63;;
2486;SDS011;1254;49.144;8.212;2023-04-06T08:52:47;12.75;;;11.65;;
2486;SDS011;1254;49.144;8.212;2023-04-06T08:55:16;12.77;;;11.77;;
2486;SDS011;1254;49.144;8.212;2023-04-06T08:57:44;13.70;;;12.50;;
2486;SDS011;1254;49.144;8.212;2023-04-06T09:00:13;13.88;;;12.52;;
2486;SDS011;1254;49.144;8.212;2023-04-06T09:02:43;16.00;;;12.23;;
2486;SDS011;1254;49.144;8.212;2023-04-06T09:05:13;13.27;;;11.90;;
2486;SDS011;1254;49.144;8.212;2023-04-06T09:07:41;14.68;;;13.43;;
2486;SDS011;1254;49.144;8.212;2023-04-06T09:10:10;12.85;;;11.77;;
2486;SDS011;1254;49.144;8.212;2023-04-06T09:12:38;14.13;;;12.75;;
2486;SDS011;1254;49.144;8.212;2023-04-06T09:15:06;16.67;;;12.48;;
2486;SDS011;1254;49.144;8.212;2023-04-06T09:17:45;13.63;;;12.43;;
2486;SDS011;1254;49.144;8.212;2023-04-06T09:20:21;12.73;;;11.68;;
2486;SDS011;1254;49.144;8.212;2023-04-06T09:22:51;14.63;;;13.32;;
2486;SDS011;1254;49.144;8.212;2023-04-06T09:25:20;14.25;;;13.13;;
2486;SDS011;1254;49.144;8.212;2023-04-06T09:27:49;15.13;;;13.82;;
2486;SDS011;1254;49.144;8.212;2023-04-06T09:30:26;15.05;;;13.55;;
2486;SDS011;1254;49.144;8.212;2023-04-06T09:32:55;13.57;;;12.23;;
2486;SDS011;1254;49.144;8.212;2023-04-06T09:35:25;14.70;;;13.50;;
2486;SDS011;1254;49.144;8.212;2023-04-06T09:37:55;17.92;;;13.02;;
2486;SDS011;1254;49.144;8.212;2023-04-06T09:40:23;14.18;;;13.05;;
2486;SDS011;1254;49.144;8.212;2023-04-06T09:42:52;14.60;;;13.27;;
2486;SDS011;1254;49.144;8.212;2023-04-06T09:45:23;14.38;;;13.18;;
2486;SDS011;1254;49.144;8.212;2023-04-06T09:47:52;13.98;;;12.65;;
2486;SDS011;1254;49.144;8.212;2023-04-06T09:50:22;13.50;;;12.40;;
2486;SDS011;1254;49.144;8.212;2023-04-06T09:52:54;16.63;;;13.27;;
2486;SDS011;1254;49.144;8.212;2023-04-06T09:55:23;14.02;;;12.73;;
2486;SDS011;1254;49.144;8.212;2023-04-06T09:57:55;17.10;;;15.60;;
2486;SDS011;1254;49.144;8.212;2023-04-06T10:00:27;15.75;;;14.15;;
2486;SDS011;1254;49.144;8.212;2023-04-06T10:02:56;16.48;;;13.90;;
2486;SDS011;1254;49.144;8.212;2023-04-06T10:05:28;13.77;;;12.88;;
2486;SDS011;1254;49.144;8.212;2023-04-06T10:08:02;14.65;;;13.35;;
2486;SDS011;1254;49.144;8.212;2023-04-06T10:10:33;15.65;;;14.05;;
2486;SDS011;1254;49.144;8.212;2023-04-06T10:13:01;16.45;;;14.85;;
2486;SDS011;1254;49.144;8.212;2023-04-06T10:15:30;14.52;;;13.32;;
2486;SDS011;1254;49.144;8.212;2023-04-06T10:17:58;16.25;;;14.75;;
2486;SDS011;1254;49.144;8.212;2023-04-06T10:20:27;15.27;;;14.10;;
2486;SDS011;1254;49.144;8.212;2023-04-06T10:22:59;14.50;;;13.35;;
2486;SDS011;1254;49.144;8.212;2023-04-06T10:25:36;17.17;;;13.30;;
2486;SDS011;1254;49.144;8.212;2023-04-06T10:28:05;14.95;;;13.85;;
2486;SDS011;1254;49.144;8.212;2023-04-06T10:30:41;13.80;;;12.70;;
2486;SDS011;1254;49.144;8.212;2023-04-06T10:33:12;13.13;;;12.23;;
2486;SDS011;1254;49.144;8.212;2023-04-06T10:35:41;14.48;;;13.35;;
2486;SDS011;1254;49.144;8.212;2023-04-06T10:38:10;15.70;;;12.90;;
2486;SDS011;1254;49.144;8.212;2023-04-06T10:40:42;14.47;;;13.37;;
2486;SDS011;1254;49.144;8.212;2023-04-06T10:43:17;14.50;;;13.40;;
2486;SDS011;1254;49.144;8.212;2023-04-06T10:45:53;15.47;;;12.73;;
2486;SDS011;1254;49.144;8.212;2023-04-06T10:48:22;13.17;;;12.20;;
2486;SDS011;1254;49.144;8.212;2023-04-06T10:50:53;12.50;;;11.73;;
2486;SDS011;1254;49.144;8.212;2023-04-06T10:53:22;15.00;;;13.50;;
2486;SDS011;1254;49.144;8.212;2023-04-06T10:55:52;14.37;;;13.27;;
2486;SDS011;1254;49.144;8.212;2023-04-06T10:58:24;13.03;;;12.13;;
2486;SDS011;1254;49.144;8.212;2023-04-06T11:00:52;12.57;;;11.30;;
2486;SDS011;1254;49.144;8.212;2023-04-06T11:03:21;13.77;;;12.70;;
2486;SDS011;1254;49.144;8.212;2023-04-06T11:05:49;13.90;;;12.90;;
2486;SDS011;1254;49.144;8.212;2023-04-06T11:08:28;13.63;;;12.53;;
2486;SDS011;1254;49.144;8.212;2023-04-06T11:11:08;32.17;;;13.60;;
2486;SDS011;1254;49.144;8.212;2023-04-06T11:13:37;13.97;;;12.70;;
2486;SDS011;1254;49.144;8.212;2023-04-06T11:16:06;13.87;;;12.87;;
2486;SDS011;1254;49.144;8.212;2023-04-06T11:18:34;13.37;;;12.47;;
2486;SDS011;1254;49.144;8.212;2023-04-06T11:21:02;13.67;;;12.70;;
2486;SDS011;1254;49.144;8.212;2023-04-06T11:23:31;14.03;;;13.10;;
2486;SDS011;1254;49.144;8.212;2023-04-06T11:25:59;13.47;;;12.47;;
2486;SDS011;1254;49.144;8.212;2023-04-06T11:28:30;14.30;;;13.13;;
2486;SDS011;1254;49.144;8.212;2023-04-06T11:30:58;14.80;;;13.40;;
2486;SDS011;1254;49.144;8.212;2023-04-06T11:33:27;12.93;;;12.03;;
2486;SDS011;1254;49.144;8.212;2023-04-06T11:35:56;13.00;;;11.90;;
2486;SDS011;1254;49.144;8.212;2023-04-06T11:38:25;13.60;;;12.50;;
2486;SDS011;1254;49.144;8.212;2023-04-06T11:40:53;14.80;;;13.60;;
2486;SDS011;1254;49.144;8.212;2023-04-06T11:43:25;15.00;;;13.90;;
2486;SDS011;1254;49.144;8.212;2023-04-06T11:46:00;14.50;;;13.07;;
2486;SDS011;1254;49.144;8.212;2023-04-06T11:48:29;13.50;;;12.70;;
2486;SDS011;1254;49.144;8.212;2023-04-06T11:50:58;13.40;;;12.60;;
2486;SDS011;1254;49.144;8.212;2023-04-06T11:53:27;13.93;;;12.80;;
2486;SDS011;1254;49.144;8.212;2023-04-06T11:55:56;13.70;;;12.50;;
2486;SDS011;1254;49.144;8.212;2023-04-06T11:58:25;13.70;;;12.80;;
2486;SDS011;1254;49.144;8.212;2023-04-06T12:00:54;13.70;;;12.60;;
2486;SDS011;1254;49.144;8.212;2023-04-06T12:03:32;13.13;;;12.23;;
2486;SDS011;1254;49.144;8.212;2023-04-06T12:06:00;14.10;;;13.10;;
2486;SDS011;1254;49.144;8.212;2023-04-06T12:08:29;23.77;;;14.50;;
2486;SDS011;1254;49.144;8.212;2023-04-06T12:10:58;13.67;;;12.73;;
2486;SDS011;1254;49.144;8.212;2023-04-06T12:13:26;13.63;;;12.80;;
2486;SDS011;1254;49.144;8.212;2023-04-06T12:15:54;15.17;;;13.90;;
2486;SDS011;1254;49.144;8.212;2023-04-06T12:18:23;14.83;;;13.43;;
2486;SDS011;1254;49.144;8.212;2023-04-06T12:20:52;14.70;;;13.63;;
2486;SDS011;1254;49.144;8.212;2023-04-06T12:23:21;14.80;;;13.30;;
2486;SDS011;1254;49.144;8.212;2023-04-06T12:25:49;15.93;;;14.80;;
2486;SDS011;1254;49.144;8.212;2023-04-06T12:28:18;15.80;;;14.60;;
2486;SDS011;1254;49.144;8.212;2023-04-06T12:30:50;15.67;;;14.27;;
2486;SDS011;1254;49.144;8.212;2023-04-06T12:33:18;15.37;;;13.80;;
2486;SDS011;1254;49.144;8.212;2023-04-06T12:35:47;15.33;;;14.13;;
2486;SDS011;1254;49.144;8.212;2023-04-06T12:38:17;15.43;;;14.43;;
2486;SDS011;1254;49.144;8.212;2023-04-06T12:40:46;14.97;;;13.77;;
2486;SDS011;1254;49.144;8.212;2023-04-06T12:43:14;14.67;;;13.77;;
2486;SDS011;1254;49.144;8.212;2023-04-06T12:45:43;14.73;;;13.50;;
2486;SDS011;1254;49.144;8.212;2023-04-06T12:48:12;15.10;;;14.10;;
2486;SDS011;1254;49.144;8.212;2023-04-06T12:50:40;14.30;;;13.30;;
2486;SDS011;1254;49.144;8.212;2023-04-06T12:53:09;13.50;;;12.50;;
2486;SDS011;1254;49.144;8.212;2023-04-06T12:55:38;14.10;;;12.83;;
2486;SDS011;1254;49.144;8.212;2023-04-06T12:58:07;14.57;;;13.37;;
2486;SDS011;1254;49.144;8.212;2023-04-06T13:00:35;14.80;;;13.60;;
2486;SDS011;1254;49.144;8.212;2023-04-06T13:03:04;13.93;;;12.73;;
2486;SDS011;1254;49.144;8.212;2023-04-06T13:05:32;13.97;;;13.07;;
2486;SDS011;1254;49.144;8.212;2023-04-06T13:08:01;15.20;;;14.10;;
2486;SDS011;1254;49.144;8.212;2023-04-06T13:10:30;13.63;;;12.73;;
2486;SDS011;1254;49.144;8.212;2023-04-06T13:13:00;13.03;;;12.10;;
2486;SDS011;1254;49.144;8.212;2023-04-06T13:15:28;12.90;;;12.10;;
2486;SDS011;1254;49.144;8.212;2023-04-06T13:17:57;11.87;;;10.77;;
2486;SDS011;1254;49.144;8.212;2023-04-06T13:20:25;13.73;;;12.67;;
2486;SDS011;1254;49.144;8.212;2023-04-06T13:22:54;13.83;;;12.63;;
2486;SDS011;1254;49.144;8.212;2023-04-06T13:25:22;13.30;;;12.30;;
2486;SDS011;1254;49.144;8.212;2023-04-06T13:27:50;13.33;;;11.97;;
2486;SDS011;1254;49.144;8.212;2023-04-06T13:30:20;12.67;;;11.67;;
2486;SDS011;1254;49.144;8.212;2023-04-06T13:32:48;13.67;;;12.67;;
2486;SDS011;1254;49.144;8.212;2023-04-06T13:35:17;12.77;;;11.77;;
2486;SDS011;1254;49.144;8.212;2023-04-06T13:37:45;13.27;;;12.30;;
2486;SDS011;1254;49.144;8.212;2023-04-06T13:40:14;13.37;;;12.27;;
2486;SDS011;1254;49.144;8.212;2023-04-06T13:42:42;12.87;;;11.60;;
2486;SDS011;1254;49.144;8.212;2023-04-06T13:45:12;14.20;;;13.07;;
2486;SDS011;1254;49.144;8.212;2023-04-06T13:47:42;13.03;;;12.03;;
2486;SDS011;1254;49.144;8.212;2023-04-06T13:50:10;12.13;;;11.33;;
2486;SDS011;1254;49.144;8.212;2023-04-06T13:52:39;12.20;;;11.30;;
2486;SDS011;1254;49.144;8.212;2023-04-06T13:55:08;13.07;;;12.10;;
2486;SDS011;1254;49.144;8.212;2023-04-06T13:57:36;12.73;;;11.83;;
2486;SDS011;1254;49.144;8.212;2023-04-06T14:00:05;12.87;;;12.00;;
2486;SDS011;1254;49.144;8.212;2023-04-06T14:02:33;12.80;;;11.90;;
2486;SDS011;1254;49.144;8.212;2023-04-06T14:05:03;13.20;;;12.20;;
2486;SDS011;1254;49.144;8.212;2023-04-06T14:07:31;14.20;;;13.20;;
2486;SDS011;1254;49.144;8.212;2023-04-06T14:10:00;11.63;;;10.77;;
2486;SDS011;1254;49.144;8.212;2023-04-06T14:12:28;12.13;;;11.30;;
2486;SDS011;1254;49.144;8.212;2023-04-06T14:14:57;12.90;;;12.10;;
2486;SDS011;1254;49.144;8.212;2023-04-06T14:17:26;13.83;;;12.63;;
2486;SDS011;1254;49.144;8.212;2023-04-06T14:19:54;14.40;;;13.20;;
2486;SDS011;1254;49.144;8.212;2023-04-06T14:22:24;13.93;;;12.93;;
2486;SDS011;1254;49.144;8.212;2023-04-06T14:24:52;14.47;;;13.30;;
2486;SDS011;1254;49.144;8.212;2023-04-06T14:27:20;12.40;;;11.67;;
2486;SDS011;1254;49.144;8.212;2023-04-06T14:29:49;13.23;;;12.23;;
2486;SDS011;1254;49.144;8.212;2023-04-06T14:32:17;13.40;;;12.20;;
2486;SDS011;1254;49.144;8.212;2023-04-06T14:34:45;13.63;;;12.70;;
2486;SDS011;1254;49.144;8.212;2023-04-06T14:37:13;12.87;;;11.77;;
2486;SDS011;1254;49.144;8.212;2023-04-06T14:39:44;13.77;;;12.50;;
2486;SDS011;1254;49.144;8.212;2023-04-06T14:42:13;13.53;;;12.43;;
2486;SDS011;1254;49.144;8.212;2023-04-06T14:44:41;14.03;;;12.80;;
2486;SDS011;1254;49.144;8.212;2023-04-06T14:47:11;13.33;;;12.20;;
2486;SDS011;1254;49.144;8.212;2023-04-06T14:49:41;12.10;;;11.20;;
2486;SDS011;1254;49.144;8.212;2023-04-06T14:52:09;13.70;;;12.53;;
2486;SDS011;1254;49.144;8.212;2023-04-06T14:54:37;13.70;;;12.50;;
2486;SDS011;1254;49.144;8.212;2023-04-06T14:57:07;13.27;;;12.27;;
2486;SDS011;1254;49.144;8.212;2023-04-06T14:59:36;13.60;;;12.50;;
2486;SDS011;1254;49.144;8.212;2023-04-06T15:02:04;13.97;;;12.80;;
2486;SDS011;1254;49.144;8.212;2023-04-06T15:04:33;14.63;;;13.37;;
2486;SDS011;1254;49.144;8.212;2023-04-06T15:07:02;13.33;;;12.10;;
2486;SDS011;1254;49.144;8.212;2023-04-06T15:09:30;13.80;;;12.20;;
2486;SDS011;1254;49.144;8.212;2023-04-06T15:11:58;14.10;;;11.53;;
2486;SDS011;1254;49.144;8.212;2023-04-06T15:14:28;13.33;;;12.23;;
2486;SDS011;1254;49.144;8.212;2023-04-06T15:16:56;13.37;;;12.13;;